createdAt,value
2018-04-18T00:00:40.484Z,101454
2018-04-18T00:05:42.934Z,101446
2018-04-18T00:10:44.461Z,101456
2018-04-18T00:15:46.032Z,101461
2018-04-18T00:20:47.590Z,101461
2018-04-18T00:25:49.906Z,101459
2018-04-18T00:30:51.572Z,101460
2018-04-18T00:35:53.312Z,101463
2018-04-18T00:40:55.745Z,101472
2018-04-18T00:45:57.275Z,101478
2018-04-18T00:50:59.590Z,101479
2018-04-18T00:56:01.131Z,101478
2018-04-18T01:01:03.411Z,101477
2018-04-18T01:06:05.731Z,101473
2018-04-18T01:11:07.261Z,101474
2018-04-18T01:16:09.537Z,101483
2018-04-18T01:21:11.800Z,101485
2018-04-18T01:26:13.366Z,101490
2018-04-18T01:31:14.894Z,101482
2018-04-18T01:36:16.447Z,101475
2018-04-18T01:41:18.761Z,101479
2018-04-18T01:46:20.340Z,101484
2018-04-18T01:51:28.679Z,101484
2018-04-18T01:56:30.412Z,101497
2018-04-18T02:01:31.954Z,101496
2018-04-18T02:06:34.219Z,101499
2018-04-18T02:11:35.761Z,101503
2018-04-18T02:16:37.328Z,101503
2018-04-18T02:21:38.956Z,101515
2018-04-18T02:26:41.242Z,101511
2018-04-18T02:31:42.939Z,101506
2018-04-18T02:36:44.525Z,101511
2018-04-18T02:41:46.061Z,101513
2018-04-18T02:46:47.639Z,101509
2018-04-18T02:51:49.186Z,101514
2018-04-18T02:56:50.737Z,101511
2018-04-18T03:01:53.338Z,101516
2018-04-18T03:06:55.634Z,101520
2018-04-18T03:11:57.328Z,101523
2018-04-18T03:16:58.851Z,101520
2018-04-18T03:22:00.386Z,101529
2018-04-18T03:27:02.237Z,101533
2018-04-18T03:32:03.939Z,101540
2018-04-18T03:37:05.527Z,101534
2018-04-18T03:42:07.233Z,101550
2018-04-18T03:47:08.862Z,101544
2018-04-18T03:52:10.355Z,101541
2018-04-18T03:57:11.882Z,101553
2018-04-18T04:02:13.502Z,101552
2018-04-18T04:07:15.100Z,101557
2018-04-18T04:12:16.654Z,101559
2018-04-18T04:17:36.804Z,101566
2018-04-18T04:22:56.804Z,101564
2018-04-18T04:27:58.375Z,101570
2018-04-18T04:32:59.916Z,101569
2018-04-18T04:38:02.407Z,101570
2018-04-18T04:43:04.094Z,101583
2018-04-18T04:48:05.688Z,101592
2018-04-18T04:53:07.220Z,101583
2018-04-18T04:58:08.792Z,101591
2018-04-18T05:03:17.423Z,101598
2018-04-18T05:08:19.053Z,101598
2018-04-18T05:13:20.551Z,101595
2018-04-18T05:18:22.068Z,101602
2018-04-18T05:23:23.617Z,101609
2018-04-18T05:28:25.179Z,101597
2018-04-18T05:33:26.725Z,101599
2018-04-18T05:38:28.323Z,101608
2018-04-18T05:43:29.908Z,101609
2018-04-18T05:48:32.425Z,101619
2018-04-18T05:53:33.988Z,101617
2018-04-18T05:58:35.568Z,101628
2018-04-18T06:03:37.166Z,101622
2018-04-18T06:08:38.847Z,101622
2018-04-18T06:13:40.412Z,101612
2018-04-18T06:18:42.053Z,101609
2018-04-18T06:23:43.612Z,101616
2018-04-18T06:28:45.151Z,101614
2018-04-18T06:33:47.432Z,101620
2018-04-18T06:38:49.741Z,101629
2018-04-18T06:43:51.298Z,101633
2018-04-18T06:48:53.576Z,101644
2018-04-18T06:53:55.865Z,101647
2018-04-18T06:58:58.153Z,101668
2018-04-18T07:04:00.490Z,101676
2018-04-18T07:09:02.078Z,101667
2018-04-18T07:14:03.719Z,101674
2018-04-18T07:19:05.279Z,101676
2018-04-18T07:24:06.830Z,101682
2018-04-18T07:29:08.361Z,101688
2018-04-18T07:34:09.912Z,101687
2018-04-18T07:39:11.634Z,101692
2018-04-18T07:44:13.939Z,101686
2018-04-18T07:49:15.509Z,101685
2018-04-18T07:54:17.106Z,101696
2018-04-18T07:59:18.636Z,101704
2018-04-18T08:04:20.191Z,101704
2018-04-18T08:09:22.979Z,101706
2018-04-18T08:14:25.264Z,101699
2018-04-18T08:19:27.517Z,101708
2018-04-18T08:24:29.071Z,101709
2018-04-18T08:29:30.568Z,101723
2018-04-18T08:34:32.117Z,101719
2018-04-18T08:39:33.638Z,101716
2018-04-18T08:44:35.163Z,101720
2018-04-18T08:49:36.743Z,101727
2018-04-18T08:54:38.266Z,101728
2018-04-18T08:59:39.798Z,101721
2018-04-18T09:04:42.143Z,101720
2018-04-18T09:09:43.776Z,101725
2018-04-18T09:14:45.288Z,101727
2018-04-18T09:19:46.834Z,101729
2018-04-18T09:24:48.374Z,101724
2018-04-18T09:29:49.894Z,101716
2018-04-18T09:34:51.438Z,101723
2018-04-18T09:39:52.947Z,101732
2018-04-18T09:44:55.257Z,101722
2018-04-18T09:49:56.796Z,101732
2018-04-18T09:54:58.427Z,101720
2018-04-18T10:00:00.014Z,101721
2018-04-18T10:05:07.654Z,101724
2018-04-18T10:10:10.877Z,101720
2018-04-18T10:15:12.428Z,101711
2018-04-18T10:20:14.069Z,101706
2018-04-18T10:25:15.620Z,101706
2018-04-18T10:30:17.211Z,101704
2018-04-18T10:35:18.782Z,101705
2018-04-18T10:40:20.474Z,101708
2018-04-18T10:45:22.771Z,101695
2018-04-18T10:50:24.300Z,101692
2018-04-18T10:55:25.897Z,101695
2018-04-18T11:00:28.183Z,101683
2018-04-18T11:05:30.485Z,101677
2018-04-18T11:10:32.223Z,101682
2018-04-18T11:15:33.835Z,101671
2018-04-18T11:20:35.429Z,101672
2018-04-18T11:25:37.027Z,101670
2018-04-18T11:30:38.579Z,101666
2018-04-18T11:35:40.144Z,101664
2018-04-18T11:40:41.689Z,101665
2018-04-18T11:45:43.262Z,101652
2018-04-18T11:50:44.863Z,101666
2018-04-18T11:55:46.412Z,101653
2018-04-18T12:00:47.928Z,101655
2018-04-18T12:05:50.243Z,101654
2018-04-18T12:10:51.792Z,101646
2018-04-18T12:15:54.082Z,101657
2018-04-18T12:20:56.373Z,101649
2018-04-18T12:25:58.004Z,101641
2018-04-18T12:30:59.602Z,101639
2018-04-18T12:36:01.971Z,101646
2018-04-18T12:41:03.634Z,101630
2018-04-18T12:46:05.215Z,101623
2018-04-18T12:51:06.761Z,101635
2018-04-18T12:56:08.301Z,101616
2018-04-18T13:01:09.832Z,101615
2018-04-18T13:06:12.109Z,101597
2018-04-18T13:11:14.432Z,101598
2018-04-18T13:16:16.041Z,101597
2018-04-18T13:21:17.841Z,101592
2018-04-18T13:26:20.167Z,101593
2018-04-18T13:31:21.690Z,101584
2018-04-18T13:36:23.884Z,101591
2018-04-18T13:41:25.726Z,101583
2018-04-18T13:46:27.207Z,101587
2018-04-18T13:51:29.498Z,101582
2018-04-18T13:56:37.855Z,101573
2018-04-18T14:01:39.344Z,101576
2018-04-18T14:06:40.828Z,101561
2018-04-18T14:11:42.365Z,101566
2018-04-18T14:16:43.908Z,101573
2018-04-18T14:21:45.468Z,101568
2018-04-18T14:26:47.739Z,101569
2018-04-18T14:31:49.418Z,101559
2018-04-18T14:36:50.957Z,101560
2018-04-18T14:41:52.674Z,101553
2018-04-18T14:46:54.970Z,101542
2018-04-18T14:51:56.580Z,101543
2018-04-18T14:56:58.154Z,101541
2018-04-18T15:01:59.715Z,101530
2018-04-18T15:07:01.237Z,101515
2018-04-18T15:12:02.902Z,101514
2018-04-18T15:17:05.228Z,101511
2018-04-18T15:22:06.957Z,101513
2018-04-18T15:27:09.226Z,101502
2018-04-18T15:32:10.956Z,101503
2018-04-18T15:37:12.539Z,101495
2018-04-18T15:42:14.090Z,101490
2018-04-18T15:47:15.636Z,101492
2018-04-18T15:52:17.279Z,101501
2018-04-18T15:57:18.880Z,101495
2018-04-18T16:02:20.420Z,101491
2018-04-18T16:07:22.883Z,101495
2018-04-18T16:12:24.429Z,101488
2018-04-18T16:17:25.987Z,101481
2018-04-18T16:22:27.567Z,101486
2018-04-18T16:27:29.105Z,101481
2018-04-18T16:32:30.696Z,101481
2018-04-18T16:37:33.492Z,101478
2018-04-18T16:42:35.066Z,101480
2018-04-18T16:47:36.607Z,101476
2018-04-18T16:52:38.225Z,101474
2018-04-18T16:57:39.813Z,101471
2018-04-18T17:02:41.362Z,101476
2018-04-18T17:07:42.912Z,101473
2018-04-18T17:12:44.669Z,101467
2018-04-18T17:17:46.329Z,101472
2018-04-18T17:22:47.939Z,101474
2018-04-18T17:27:49.764Z,101469
2018-04-18T17:32:51.455Z,101461
2018-04-18T17:37:53.066Z,101461
2018-04-18T17:42:54.680Z,101457
2018-04-18T17:47:56.231Z,101458
2018-04-18T17:52:58.669Z,101456
2018-04-18T17:58:00.147Z,101460
2018-04-18T18:03:01.704Z,101463
2018-04-18T18:08:03.299Z,101470
2018-04-18T18:13:05.003Z,101467
2018-04-18T18:18:07.323Z,101469
2018-04-18T18:23:08.881Z,101478
2018-04-18T18:28:10.478Z,101480
2018-04-18T18:33:12.043Z,101487
2018-04-18T18:38:13.656Z,101488
2018-04-18T18:43:16.071Z,101499
2018-04-18T18:48:17.725Z,101498
2018-04-18T18:53:20.241Z,101495
2018-04-18T18:58:21.748Z,101499
2018-04-18T19:03:23.377Z,101507
2018-04-18T19:08:24.908Z,101516
2018-04-18T19:13:27.293Z,101522
2018-04-18T19:18:29.574Z,101524
2018-04-18T19:23:31.153Z,101530
2018-04-18T19:28:33.631Z,101531
2018-04-18T19:33:35.059Z,101526
2018-04-18T19:38:36.677Z,101517
2018-04-18T19:43:39.164Z,101530
2018-04-18T19:48:41.483Z,101518
2018-04-18T19:53:43.220Z,101527
2018-04-18T19:58:45.699Z,101522
2018-04-18T20:03:47.368Z,101518
2018-04-18T20:08:48.968Z,101514
2018-04-18T20:13:51.356Z,101506
2018-04-18T20:18:53.697Z,101510
2018-04-18T20:23:55.539Z,101504
2018-04-18T20:28:57.091Z,101488
2018-04-18T20:33:58.818Z,101488
2018-04-18T20:39:00.458Z,101487
2018-04-18T20:44:02.019Z,101492
2018-04-18T20:49:03.830Z,101484
2018-04-18T20:54:05.465Z,101480
2018-04-18T20:59:07.147Z,101474
2018-04-18T21:04:08.847Z,101467
2018-04-18T21:09:10.443Z,101467
2018-04-18T21:14:12.811Z,101463
2018-04-18T21:19:14.489Z,101466
2018-04-18T21:24:16.214Z,101460
2018-04-18T21:29:17.873Z,101463
2018-04-18T21:34:19.581Z,101458
2018-04-18T21:39:21.168Z,101460
2018-04-18T21:44:22.895Z,101464
2018-04-18T21:49:24.400Z,101458
2018-04-18T21:54:25.988Z,101460
2018-04-18T21:59:28.342Z,101454
2018-04-18T22:04:29.876Z,101463
2018-04-18T22:09:31.443Z,101460
2018-04-18T22:14:33.024Z,101459
2018-04-18T22:19:34.615Z,101450
2018-04-18T22:24:36.240Z,101451
2018-04-18T22:29:37.820Z,101452
2018-04-18T22:34:39.382Z,101452
2018-04-18T22:39:40.963Z,101457
2018-04-18T22:44:42.516Z,101467
2018-04-18T22:49:44.045Z,101460
2018-04-18T22:54:45.755Z,101466
2018-04-18T22:59:47.301Z,101479
2018-04-18T23:04:49.595Z,101465
2018-04-18T23:09:51.884Z,101466
2018-04-18T23:14:54.493Z,101461
2018-04-18T23:19:56.040Z,101464
2018-04-18T23:24:58.307Z,101460
2018-04-18T23:29:59.870Z,101464
2018-04-18T23:35:01.453Z,101460
2018-04-18T23:40:03.755Z,101455
2018-04-18T23:45:06.039Z,101460
2018-04-18T23:50:08.345Z,101463
2018-04-18T23:55:09.913Z,101458
